sensor_id;sensor_type;location;lat;lon;timestamp;P1;durP1;ratioP1;P2;durP2;ratioP2
19049;SDS011;9657;45.940;12.840;2023-07-29T00:01:39;68.38;;;26.80;;
19049;SDS011;9657;45.940;12.840;2023-07-29T00:04:07;65.43;;;25.67;;
19049;SDS011;9657;45.940;12.840;2023-07-29T00:06:35;67.72;;;27.00;;
19049;SDS011;9657;45.940;12.840;2023-07-29T00:09:03;67.05;;;26.40;;
19049;SDS011;9657;45.940;12.840;2023-07-29T00:11:30;63.30;;;25.38;;
19049;SDS011;9657;45.940;12.840;2023-07-29T00:13:59;64.25;;;26.23;;
19049;SDS011;9657;45.940;12.840;2023-07-29T00:16:26;59.90;;;24.77;;
19049;SDS011;9657;45.940;12.840;2023-07-29T00:18:53;61.40;;;25.15;;
19049;SDS011;9657;45.940;12.840;2023-07-29T00:21:20;58.60;;;24.73;;
19049;SDS011;9657;45.940;12.840;2023-07-29T00:23:47;64.32;;;24.00;;
19049;SDS011;9657;45.940;12.840;2023-07-29T00:26:15;55.75;;;24.60;;
19049;SDS011;9657;45.940;12.840;2023-07-29T00:28:42;51.72;;;22.73;;
19049;SDS011;9657;45.940;12.840;2023-07-29T00:31:09;60.65;;;23.42;;
19049;SDS011;9657;45.940;12.840;2023-07-29T00:33:36;60.35;;;23.63;;
19049;SDS011;9657;45.940;12.840;2023-07-29T00:36:04;53.85;;;22.58;;
19049;SDS011;9657;45.940;12.840;2023-07-29T00:38:31;57.70;;;22.63;;
19049;SDS011;9657;45.940;12.840;2023-07-29T00:40:58;55.88;;;23.17;;
19049;SDS011;9657;45.940;12.840;2023-07-29T00:43:28;54.17;;;23.25;;
19049;SDS011;9657;45.940;12.840;2023-07-29T00:45:55;49.30;;;20.45;;
19049;SDS011;9657;45.940;12.840;2023-07-29T00:48:23;49.80;;;21.95;;
19049;SDS011;9657;45.940;12.840;2023-07-29T00:50:50;44.10;;;20.08;;
19049;SDS011;9657;45.940;12.840;2023-07-29T00:53:18;43.72;;;20.20;;
19049;SDS011;9657;45.940;12.840;2023-07-29T00:55:45;49.83;;;21.20;;
19049;SDS011;9657;45.940;12.840;2023-07-29T00:58:12;50.55;;;21.20;;
19049;SDS011;9657;45.940;12.840;2023-07-29T01:03:16;51.42;;;21.25;;
19049;SDS011;9657;45.940;12.840;2023-07-29T01:05:46;45.90;;;19.38;;
19049;SDS011;9657;45.940;12.840;2023-07-29T01:08:27;43.70;;;18.00;;
19049;SDS011;9657;45.940;12.840;2023-07-29T01:11:03;39.78;;;19.05;;
19049;SDS011;9657;45.940;12.840;2023-07-29T01:13:41;40.97;;;17.98;;
19049;SDS011;9657;45.940;12.840;2023-07-29T01:16:15;39.88;;;19.50;;
19049;SDS011;9657;45.940;12.840;2023-07-29T01:18:48;39.67;;;19.17;;
19049;SDS011;9657;45.940;12.840;2023-07-29T01:21:19;43.20;;;18.45;;
19049;SDS011;9657;45.940;12.840;2023-07-29T01:23:48;48.00;;;19.40;;
19049;SDS011;9657;45.940;12.840;2023-07-29T01:26:19;40.05;;;17.27;;
19049;SDS011;9657;45.940;12.840;2023-07-29T01:28:46;43.20;;;17.92;;
19049;SDS011;9657;45.940;12.840;2023-07-29T01:31:13;38.20;;;18.15;;
19049;SDS011;9657;45.940;12.840;2023-07-29T01:33:48;38.33;;;17.48;;
19049;SDS011;9657;45.940;12.840;2023-07-29T01:36:24;38.72;;;16.25;;
19049;SDS011;9657;45.940;12.840;2023-07-29T01:38:55;33.47;;;16.05;;
19049;SDS011;9657;45.940;12.840;2023-07-29T01:41:23;36.60;;;16.95;;
19049;SDS011;9657;45.940;12.840;2023-07-29T01:43:51;40.20;;;17.45;;
19049;SDS011;9657;45.940;12.840;2023-07-29T01:46:19;37.67;;;16.38;;
19049;SDS011;9657;45.940;12.840;2023-07-29T01:48:46;34.33;;;16.05;;
19049;SDS011;9657;45.940;12.840;2023-07-29T01:51:13;33.53;;;15.80;;
19049;SDS011;9657;45.940;12.840;2023-07-29T01:53:41;33.63;;;14.80;;
19049;SDS011;9657;45.940;12.840;2023-07-29T01:56:09;31.95;;;15.18;;
19049;SDS011;9657;45.940;12.840;2023-07-29T01:58:36;35.83;;;15.73;;
19049;SDS011;9657;45.940;12.840;2023-07-29T02:01:03;34.17;;;14.45;;
19049;SDS011;9657;45.940;12.840;2023-07-29T02:03:30;29.30;;;14.90;;
19049;SDS011;9657;45.940;12.840;2023-07-29T02:05:57;32.30;;;15.32;;
19049;SDS011;9657;45.940;12.840;2023-07-29T02:08:24;31.88;;;15.43;;
19049;SDS011;9657;45.940;12.840;2023-07-29T02:10:51;33.10;;;13.95;;
19049;SDS011;9657;45.940;12.840;2023-07-29T02:13:19;28.88;;;14.45;;
19049;SDS011;9657;45.940;12.840;2023-07-29T02:15:46;29.75;;;14.23;;
19049;SDS011;9657;45.940;12.840;2023-07-29T02:18:13;31.60;;;13.75;;
19049;SDS011;9657;45.940;12.840;2023-07-29T02:20:40;28.80;;;13.32;;
19049;SDS011;9657;45.940;12.840;2023-07-29T02:23:14;28.35;;;13.48;;
19049;SDS011;9657;45.940;12.840;2023-07-29T02:25:41;26.88;;;13.05;;
19049;SDS011;9657;45.940;12.840;2023-07-29T02:28:08;29.50;;;13.10;;
19049;SDS011;9657;45.940;12.840;2023-07-29T02:30:37;29.17;;;12.65;;
19049;SDS011;9657;45.940;12.840;2023-07-29T02:33:09;29.52;;;12.95;;
19049;SDS011;9657;45.940;12.840;2023-07-29T02:35:36;24.23;;;11.85;;
19049;SDS011;9657;45.940;12.840;2023-07-29T02:38:03;25.05;;;12.77;;
19049;SDS011;9657;45.940;12.840;2023-07-29T02:40:30;25.05;;;12.13;;
19049;SDS011;9657;45.940;12.840;2023-07-29T02:42:57;26.45;;;12.15;;
19049;SDS011;9657;45.940;12.840;2023-07-29T02:45:24;23.02;;;12.32;;
19049;SDS011;9657;45.940;12.840;2023-07-29T02:47:52;21.90;;;10.60;;
19049;SDS011;9657;45.940;12.840;2023-07-29T02:50:19;24.73;;;11.23;;
19049;SDS011;9657;45.940;12.840;2023-07-29T02:52:46;20.33;;;10.60;;
19049;SDS011;9657;45.940;12.840;2023-07-29T02:55:14;21.98;;;10.65;;
19049;SDS011;9657;45.940;12.840;2023-07-29T02:57:41;19.75;;;10.35;;
19049;SDS011;9657;45.940;12.840;2023-07-29T03:00:08;24.67;;;10.95;;
19049;SDS011;9657;45.940;12.840;2023-07-29T03:02:36;22.67;;;11.05;;
19049;SDS011;9657;45.940;12.840;2023-07-29T03:05:05;20.50;;;9.70;;
19049;SDS011;9657;45.940;12.840;2023-07-29T03:07:33;19.13;;;10.43;;
19049;SDS011;9657;45.940;12.840;2023-07-29T03:10:00;25.05;;;11.18;;
19049;SDS011;9657;45.940;12.840;2023-07-29T03:12:27;20.48;;;10.40;;
19049;SDS011;9657;45.940;12.840;2023-07-29T03:14:54;19.90;;;10.23;;
19049;SDS011;9657;45.940;12.840;2023-07-29T03:17:21;15.65;;;8.82;;
19049;SDS011;9657;45.940;12.840;2023-07-29T03:19:48;18.92;;;9.55;;
19049;SDS011;9657;45.940;12.840;2023-07-29T03:22:17;17.60;;;9.38;;
19049;SDS011;9657;45.940;12.840;2023-07-29T03:24:44;21.08;;;9.57;;
19049;SDS011;9657;45.940;12.840;2023-07-29T03:27:11;17.33;;;8.88;;
19049;SDS011;9657;45.940;12.840;2023-07-29T03:29:38;17.00;;;9.02;;
19049;SDS011;9657;45.940;12.840;2023-07-29T03:32:05;16.90;;;9.80;;
19049;SDS011;9657;45.940;12.840;2023-07-29T03:34:33;15.90;;;8.95;;
19049;SDS011;9657;45.940;12.840;2023-07-29T03:37:00;17.20;;;9.50;;
19049;SDS011;9657;45.940;12.840;2023-07-29T03:39:29;18.17;;;8.57;;
19049;SDS011;9657;45.940;12.840;2023-07-29T03:41:56;16.75;;;8.63;;
19049;SDS011;9657;45.940;12.840;2023-07-29T03:44:23;15.45;;;9.00;;
19049;SDS011;9657;45.940;12.840;2023-07-29T03:46:50;15.98;;;8.32;;
19049;SDS011;9657;45.940;12.840;2023-07-29T03:49:17;14.27;;;8.20;;
19049;SDS011;9657;45.940;12.840;2023-07-29T03:51:44;16.45;;;9.30;;
19049;SDS011;9657;45.940;12.840;2023-07-29T03:54:11;15.77;;;8.20;;
19049;SDS011;9657;45.940;12.840;2023-07-29T03:56:40;16.58;;;8.25;;
19049;SDS011;9657;45.940;12.840;2023-07-29T03:59:07;14.48;;;8.10;;
19049;SDS011;9657;45.940;12.840;2023-07-29T04:01:34;12.82;;;8.02;;
19049;SDS011;9657;45.940;12.840;2023-07-29T04:04:01;13.02;;;7.15;;
19049;SDS011;9657;45.940;12.840;2023-07-29T04:06:28;15.70;;;7.75;;
19049;SDS011;9657;45.940;12.840;2023-07-29T04:08:55;12.95;;;7.05;;
19049;SDS011;9657;45.940;12.840;2023-07-29T04:11:23;12.10;;;6.90;;
19049;SDS011;9657;45.940;12.840;2023-07-29T04:13:52;13.82;;;6.93;;
19049;SDS011;9657;45.940;12.840;2023-07-29T04:16:19;12.65;;;6.63;;
19049;SDS011;9657;45.940;12.840;2023-07-29T04:18:46;13.63;;;6.68;;
19049;SDS011;9657;45.940;12.840;2023-07-29T04:21:13;11.50;;;6.15;;
19049;SDS011;9657;45.940;12.840;2023-07-29T04:23:40;12.35;;;6.43;;
19049;SDS011;9657;45.940;12.840;2023-07-29T04:26:07;12.60;;;6.97;;
19049;SDS011;9657;45.940;12.840;2023-07-29T04:28:34;12.45;;;6.70;;
19049;SDS011;9657;45.940;12.840;2023-07-29T04:31:03;11.50;;;6.82;;
19049;SDS011;9657;45.940;12.840;2023-07-29T04:33:30;10.15;;;6.25;;
19049;SDS011;9657;45.940;12.840;2023-07-29T04:35:57;10.52;;;6.25;;
19049;SDS011;9657;45.940;12.840;2023-07-29T04:38:26;11.68;;;6.07;;
19049;SDS011;9657;45.940;12.840;2023-07-29T04:40:57;10.73;;;5.70;;
19049;SDS011;9657;45.940;12.840;2023-07-29T04:43:26;10.02;;;5.65;;
19049;SDS011;9657;45.940;12.840;2023-07-29T04:45:54;9.32;;;6.20;;
19049;SDS011;9657;45.940;12.840;2023-07-29T04:48:22;9.48;;;5.82;;
19049;SDS011;9657;45.940;12.840;2023-07-29T04:50:49;10.82;;;6.18;;
19049;SDS011;9657;45.940;12.840;2023-07-29T04:53:16;12.18;;;6.25;;
19049;SDS011;9657;45.940;12.840;2023-07-29T04:55:43;11.45;;;5.97;;
19049;SDS011;9657;45.940;12.840;2023-07-29T04:58:11;9.18;;;5.40;;
19049;SDS011;9657;45.940;12.840;2023-07-29T05:00:38;10.05;;;5.32;;
19049;SDS011;9657;45.940;12.840;2023-07-29T05:03:05;9.82;;;4.88;;
19049;SDS011;9657;45.940;12.840;2023-07-29T05:05:33;10.38;;;5.90;;
19049;SDS011;9657;45.940;12.840;2023-07-29T05:08:00;9.25;;;5.22;;
19049;SDS011;9657;45.940;12.840;2023-07-29T05:10:27;9.98;;;5.18;;
19049;SDS011;9657;45.940;12.840;2023-07-29T05:12:54;9.82;;;4.57;;
19049;SDS011;9657;45.940;12.840;2023-07-29T05:15:21;8.10;;;4.70;;
19049;SDS011;9657;45.940;12.840;2023-07-29T05:17:48;10.45;;;5.32;;
19049;SDS011;9657;45.940;12.840;2023-07-29T05:20:15;9.63;;;4.93;;
19049;SDS011;9657;45.940;12.840;2023-07-29T05:22:44;8.48;;;4.80;;
19049;SDS011;9657;45.940;12.840;2023-07-29T05:25:11;6.60;;;4.22;;
19049;SDS011;9657;45.940;12.840;2023-07-29T05:27:38;9.05;;;4.97;;
19049;SDS011;9657;45.940;12.840;2023-07-29T05:30:06;7.78;;;4.68;;
19049;SDS011;9657;45.940;12.840;2023-07-29T05:32:34;7.75;;;5.15;;
19049;SDS011;9657;45.940;12.840;2023-07-29T05:35:01;6.80;;;4.68;;
19049;SDS011;9657;45.940;12.840;2023-07-29T05:37:28;9.35;;;4.65;;
19049;SDS011;9657;45.940;12.840;2023-07-29T05:39:57;7.28;;;4.43;;
19049;SDS011;9657;45.940;12.840;2023-07-29T05:42:25;6.35;;;4.25;;
19049;SDS011;9657;45.940;12.840;2023-07-29T05:44:52;7.05;;;4.22;;
19049;SDS011;9657;45.940;12.840;2023-07-29T05:47:19;7.07;;;4.95;;
19049;SDS011;9657;45.940;12.840;2023-07-29T05:49:46;7.85;;;4.28;;
19049;SDS011;9657;45.940;12.840;2023-07-29T05:52:13;8.88;;;4.25;;
19049;SDS011;9657;45.940;12.840;2023-07-29T05:54:40;6.43;;;3.92;;
19049;SDS011;9657;45.940;12.840;2023-07-29T05:57:09;7.03;;;4.47;;
19049;SDS011;9657;45.940;12.840;2023-07-29T05:59:36;6.38;;;4.25;;
19049;SDS011;9657;45.940;12.840;2023-07-29T06:02:03;5.65;;;3.92;;
19049;SDS011;9657;45.940;12.840;2023-07-29T06:04:31;6.20;;;4.13;;
19049;SDS011;9657;45.940;12.840;2023-07-29T06:06:58;7.30;;;4.65;;
19049;SDS011;9657;45.940;12.840;2023-07-29T06:09:25;8.40;;;3.92;;
19049;SDS011;9657;45.940;12.840;2023-07-29T06:11:52;7.18;;;4.50;;
19049;SDS011;9657;45.940;12.840;2023-07-29T06:14:21;7.97;;;3.97;;
19049;SDS011;9657;45.940;12.840;2023-07-29T06:16:48;5.00;;;3.65;;
19049;SDS011;9657;45.940;12.840;2023-07-29T06:19:15;6.72;;;3.70;;
19049;SDS011;9657;45.940;12.840;2023-07-29T06:21:42;4.95;;;3.38;;
19049;SDS011;9657;45.940;12.840;2023-07-29T06:24:09;5.82;;;3.72;;
19049;SDS011;9657;45.940;12.840;2023-07-29T06:26:36;7.22;;;3.67;;
19049;SDS011;9657;45.940;12.840;2023-07-29T06:29:03;9.10;;;3.70;;
19049;SDS011;9657;45.940;12.840;2023-07-29T06:31:31;4.38;;;3.50;;
19049;SDS011;9657;45.940;12.840;2023-07-29T06:33:58;5.53;;;3.50;;
19049;SDS011;9657;45.940;12.840;2023-07-29T06:36:26;5.63;;;3.70;;
19049;SDS011;9657;45.940;12.840;2023-07-29T06:38:53;5.38;;;3.28;;
19049;SDS011;9657;45.940;12.840;2023-07-29T06:41:20;3.28;;;2.92;;
19049;SDS011;9657;45.940;12.840;2023-07-29T06:43:47;8.02;;;3.88;;
19049;SDS011;9657;45.940;12.840;2023-07-29T06:46:14;4.55;;;2.95;;
19049;SDS011;9657;45.940;12.840;2023-07-29T06:48:42;5.32;;;3.33;;
19049;SDS011;9657;45.940;12.840;2023-07-29T06:51:09;5.00;;;2.83;;
19049;SDS011;9657;45.940;12.840;2023-07-29T06:53:37;3.42;;;2.67;;
19049;SDS011;9657;45.940;12.840;2023-07-29T06:56:04;4.57;;;2.63;;
19049;SDS011;9657;45.940;12.840;2023-07-29T06:58:31;5.70;;;2.55;;
19049;SDS011;9657;45.940;12.840;2023-07-29T07:00:58;3.95;;;2.65;;
19049;SDS011;9657;45.940;12.840;2023-07-29T07:03:25;6.20;;;2.45;;
19049;SDS011;9657;45.940;12.840;2023-07-29T07:05:53;4.07;;;2.40;;
19049;SDS011;9657;45.940;12.840;2023-07-29T07:08:22;4.63;;;2.35;;
19049;SDS011;9657;45.940;12.840;2023-07-29T07:10:49;3.20;;;2.28;;
19049;SDS011;9657;45.940;12.840;2023-07-29T07:13:16;4.25;;;2.10;;
19049;SDS011;9657;45.940;12.840;2023-07-29T07:15:43;3.65;;;2.13;;
19049;SDS011;9657;45.940;12.840;2023-07-29T07:18:10;2.65;;;1.90;;
19049;SDS011;9657;45.940;12.840;2023-07-29T07:20:37;3.35;;;2.13;;
19049;SDS011;9657;45.940;12.840;2023-07-29T07:23:05;4.07;;;1.70;;
19049;SDS011;9657;45.940;12.840;2023-07-29T07:25:36;3.17;;;2.08;;
19049;SDS011;9657;45.940;12.840;2023-07-29T07:28:03;2.00;;;1.77;;
19049;SDS011;9657;45.940;12.840;2023-07-29T07:30:30;1.52;;;1.40;;
19049;SDS011;9657;45.940;12.840;2023-07-29T07:32:57;5.22;;;1.85;;
19049;SDS011;9657;45.940;12.840;2023-07-29T07:35:24;3.90;;;2.25;;
19049;SDS011;9657;45.940;12.840;2023-07-29T07:37:51;1.50;;;1.23;;
19049;SDS011;9657;45.940;12.840;2023-07-29T07:40:19;2.72;;;1.70;;
19049;SDS011;9657;45.940;12.840;2023-07-29T07:42:46;2.88;;;1.52;;
19049;SDS011;9657;45.940;12.840;2023-07-29T07:45:14;4.43;;;1.90;;
19049;SDS011;9657;45.940;12.840;2023-07-29T07:47:42;2.33;;;1.42;;
19049;SDS011;9657;45.940;12.840;2023-07-29T07:50:09;1.67;;;1.42;;
19049;SDS011;9657;45.940;12.840;2023-07-29T07:52:36;1.85;;;1.52;;
19049;SDS011;9657;45.940;12.840;2023-07-29T07:55:04;4.28;;;1.80;;
19049;SDS011;9657;45.940;12.840;2023-07-29T07:57:33;2.05;;;1.40;;
19049;SDS011;9657;45.940;12.840;2023-07-29T08:00:00;2.33;;;1.73;;
19049;SDS011;9657;45.940;12.840;2023-07-29T08:02:27;3.15;;;1.92;;
19049;SDS011;9657;45.940;12.840;2023-07-29T08:04:54;1.90;;;1.70;;
19049;SDS011;9657;45.940;12.840;2023-07-29T08:07:21;1.63;;;1.50;;
19049;SDS011;9657;45.940;12.840;2023-07-29T08:09:48;1.50;;;1.38;;
19049;SDS011;9657;45.940;12.840;2023-07-29T08:12:16;3.25;;;1.73;;
19049;SDS011;9657;45.940;12.840;2023-07-29T08:14:44;2.58;;;1.38;;
19049;SDS011;9657;45.940;12.840;2023-07-29T08:17:11;2.92;;;1.50;;
19049;SDS011;9657;45.940;12.840;2023-07-29T08:19:38;2.30;;;1.45;;
19049;SDS011;9657;45.940;12.840;2023-07-29T08:22:04;1.90;;;1.50;;
19049;SDS011;9657;45.940;12.840;2023-07-29T08:24:32;2.50;;;1.23;;
19049;SDS011;9657;45.940;12.840;2023-07-29T08:26:59;1.60;;;1.33;;
19049;SDS011;9657;45.940;12.840;2023-07-29T08:29:26;2.55;;;1.70;;
19049;SDS011;9657;45.940;12.840;2023-07-29T08:31:54;1.90;;;1.27;;
19049;SDS011;9657;45.940;12.840;2023-07-29T08:34:21;1.85;;;1.30;;
19049;SDS011;9657;45.940;12.840;2023-07-29T08:36:48;2.47;;;1.30;;
19049;SDS011;9657;45.940;12.840;2023-07-29T08:39:15;2.30;;;1.48;;
19049;SDS011;9657;45.940;12.840;2023-07-29T08:41:44;2.95;;;1.50;;
19049;SDS011;9657;45.940;12.840;2023-07-29T08:44:18;3.53;;;1.52;;
19049;SDS011;9657;45.940;12.840;2023-07-29T08:46:48;1.45;;;1.23;;
19049;SDS011;9657;45.940;12.840;2023-07-29T08:49:18;2.47;;;1.70;;
19049;SDS011;9657;45.940;12.840;2023-07-29T08:51:45;2.05;;;1.60;;
19049;SDS011;9657;45.940;12.840;2023-07-29T08:54:14;1.90;;;1.45;;
19049;SDS011;9657;45.940;12.840;2023-07-29T08:56:42;2.92;;;1.90;;
19049;SDS011;9657;45.940;12.840;2023-07-29T08:59:10;3.13;;;1.80;;
19049;SDS011;9657;45.940;12.840;2023-07-29T09:01:37;2.90;;;2.20;;
19049;SDS011;9657;45.940;12.840;2023-07-29T09:04:05;2.10;;;1.60;;
19049;SDS011;9657;45.940;12.840;2023-07-29T09:06:33;3.40;;;2.17;;
19049;SDS011;9657;45.940;12.840;2023-07-29T09:09:03;3.50;;;2.00;;
19049;SDS011;9657;45.940;12.840;2023-07-29T09:11:30;4.35;;;2.33;;
19049;SDS011;9657;45.940;12.840;2023-07-29T09:13:59;4.95;;;2.30;;
19049;SDS011;9657;45.940;12.840;2023-07-29T09:16:26;3.60;;;2.00;;
19049;SDS011;9657;45.940;12.840;2023-07-29T09:18:53;2.85;;;2.03;;
19049;SDS011;9657;45.940;12.840;2023-07-29T09:21:22;3.25;;;2.22;;
19049;SDS011;9657;45.940;12.840;2023-07-29T09:23:53;4.30;;;2.30;;
19049;SDS011;9657;45.940;12.840;2023-07-29T09:26:22;2.60;;;2.05;;
19049;SDS011;9657;45.940;12.840;2023-07-29T09:28:51;3.95;;;2.08;;
19049;SDS011;9657;45.940;12.840;2023-07-29T09:31:19;3.58;;;2.42;;
19049;SDS011;9657;45.940;12.840;2023-07-29T09:33:46;3.83;;;2.40;;
19049;SDS011;9657;45.940;12.840;2023-07-29T09:36:13;2.55;;;2.30;;
19049;SDS011;9657;45.940;12.840;2023-07-29T09:38:40;3.88;;;2.30;;
19049;SDS011;9657;45.940;12.840;2023-07-29T09:41:10;2.47;;;2.25;;
19049;SDS011;9657;45.940;12.840;2023-07-29T09:43:39;4.85;;;2.28;;
19049;SDS011;9657;45.940;12.840;2023-07-29T09:46:06;3.53;;;2.22;;
19049;SDS011;9657;45.940;12.840;2023-07-29T09:48:33;2.63;;;2.38;;
19049;SDS011;9657;45.940;12.840;2023-07-29T09:51:09;3.60;;;2.40;;
19049;SDS011;9657;45.940;12.840;2023-07-29T09:53:39;3.85;;;2.60;;
19049;SDS011;9657;45.940;12.840;2023-07-29T09:56:07;3.00;;;2.47;;
19049;SDS011;9657;45.940;12.840;2023-07-29T09:58:36;2.88;;;2.60;;
19049;SDS011;9657;45.940;12.840;2023-07-29T10:01:03;2.40;;;2.15;;
19049;SDS011;9657;45.940;12.840;2023-07-29T10:03:30;2.45;;;2.15;;
19049;SDS011;9657;45.940;12.840;2023-07-29T10:05:59;4.38;;;2.60;;
19049;SDS011;9657;45.940;12.840;2023-07-29T10:08:28;4.13;;;2.47;;
19049;SDS011;9657;45.940;12.840;2023-07-29T10:10:57;2.60;;;2.30;;
19049;SDS011;9657;45.940;12.840;2023-07-29T10:13:27;3.83;;;2.47;;
19049;SDS011;9657;45.940;12.840;2023-07-29T10:15:54;3.25;;;2.50;;
19049;SDS011;9657;45.940;12.840;2023-07-29T10:18:22;2.65;;;2.42;;
19049;SDS011;9657;45.940;12.840;2023-07-29T10:20:50;3.10;;;2.38;;
19049;SDS011;9657;45.940;12.840;2023-07-29T10:23:18;2.75;;;2.17;;
19049;SDS011;9657;45.940;12.840;2023-07-29T10:25:49;2.63;;;2.15;;
19049;SDS011;9657;45.940;12.840;2023-07-29T10:28:21;3.08;;;2.60;;
19049;SDS011;9657;45.940;12.840;2023-07-29T10:30:56;3.00;;;2.72;;
19049;SDS011;9657;45.940;12.840;2023-07-29T10:33:23;3.63;;;2.60;;
19049;SDS011;9657;45.940;12.840;2023-07-29T10:35:51;4.07;;;2.90;;
19049;SDS011;9657;45.940;12.840;2023-07-29T10:38:19;4.00;;;2.70;;
19049;SDS011;9657;45.940;12.840;2023-07-29T10:40:49;4.82;;;2.97;;
19049;SDS011;9657;45.940;12.840;2023-07-29T10:43:23;2.95;;;2.65;;
19049;SDS011;9657;45.940;12.840;2023-07-29T10:45:53;3.72;;;2.58;;
19049;SDS011;9657;45.940;12.840;2023-07-29T10:48:40;2.58;;;2.38;;
19049;SDS011;9657;45.940;12.840;2023-07-29T10:51:21;4.38;;;2.58;;
19049;SDS011;9657;45.940;12.840;2023-07-29T10:53:54;4.22;;;2.50;;
19049;SDS011;9657;45.940;12.840;2023-07-29T10:56:29;2.83;;;2.50;;
19049;SDS011;9657;45.940;12.840;2023-07-29T10:58:59;3.28;;;2.78;;
19049;SDS011;9657;45.940;12.840;2023-07-29T11:01:52;3.80;;;2.92;;
19049;SDS011;9657;45.940;12.840;2023-07-29T11:04:23;3.15;;;2.85;;
19049;SDS011;9657;45.940;12.840;2023-07-29T11:07:01;2.75;;;2.55;;
19049;SDS011;9657;45.940;12.840;2023-07-29T11:09:58;2.63;;;2.40;;
19049;SDS011;9657;45.940;12.840;2023-07-29T11:12:33;3.40;;;2.45;;
19049;SDS011;9657;45.940;12.840;2023-07-29T11:15:02;2.90;;;2.60;;
19049;SDS011;9657;45.940;12.840;2023-07-29T11:17:32;4.15;;;2.97;;
19049;SDS011;9657;45.940;12.840;2023-07-29T11:20:00;5.30;;;2.90;;
19049;SDS011;9657;45.940;12.840;2023-07-29T11:22:28;3.08;;;2.67;;
19049;SDS011;9657;45.940;12.840;2023-07-29T11:24:56;3.25;;;2.60;;
19049;SDS011;9657;45.940;12.840;2023-07-29T11:27:23;2.95;;;2.65;;
19049;SDS011;9657;45.940;12.840;2023-07-29T11:29:50;4.28;;;2.92;;
19049;SDS011;9657;45.940;12.840;2023-07-29T11:32:22;5.05;;;3.08;;
19049;SDS011;9657;45.940;12.840;2023-07-29T11:34:51;2.67;;;2.47;;
19049;SDS011;9657;45.940;12.840;2023-07-29T11:37:18;3.65;;;2.95;;
19049;SDS011;9657;45.940;12.840;2023-07-29T11:39:46;2.97;;;2.70;;
19049;SDS011;9657;45.940;12.840;2023-07-29T11:42:13;5.22;;;3.15;;
19049;SDS011;9657;45.940;12.840;2023-07-29T11:44:41;4.45;;;3.10;;
19049;SDS011;9657;45.940;12.840;2023-07-29T11:47:08;3.13;;;2.75;;
19049;SDS011;9657;45.940;12.840;2023-07-29T11:49:37;3.92;;;2.90;;
19049;SDS011;9657;45.940;12.840;2023-07-29T11:52:07;4.35;;;3.25;;
19049;SDS011;9657;45.940;12.840;2023-07-29T11:54:35;3.22;;;2.90;;
19049;SDS011;9657;45.940;12.840;2023-07-29T11:57:03;4.57;;;3.15;;
19049;SDS011;9657;45.940;12.840;2023-07-29T11:59:32;3.60;;;2.92;;
19049;SDS011;9657;45.940;12.840;2023-07-29T12:02:00;3.58;;;3.00;;
19049;SDS011;9657;45.940;12.840;2023-07-29T12:04:28;5.45;;;3.20;;
19049;SDS011;9657;45.940;12.840;2023-07-29T12:06:55;3.20;;;2.85;;
19049;SDS011;9657;45.940;12.840;2023-07-29T12:09:25;4.78;;;3.03;;
19049;SDS011;9657;45.940;12.840;2023-07-29T12:11:53;3.25;;;2.75;;
19049;SDS011;9657;45.940;12.840;2023-07-29T12:14:20;4.57;;;3.17;;
19049;SDS011;9657;45.940;12.840;2023-07-29T12:16:48;4.97;;;3.50;;
19049;SDS011;9657;45.940;12.840;2023-07-29T12:19:17;4.35;;;3.42;;
19049;SDS011;9657;45.940;12.840;2023-07-29T12:21:44;3.10;;;2.80;;
19049;SDS011;9657;45.940;12.840;2023-07-29T12:24:11;5.55;;;3.35;;
19049;SDS011;9657;45.940;12.840;2023-07-29T12:26:40;3.17;;;2.80;;
19049;SDS011;9657;45.940;12.840;2023-07-29T12:29:11;4.05;;;3.42;;
19049;SDS011;9657;45.940;12.840;2023-07-29T12:31:38;3.70;;;3.40;;
19049;SDS011;9657;45.940;12.840;2023-07-29T12:34:06;3.63;;;3.33;;
19049;SDS011;9657;45.940;12.840;2023-07-29T12:36:42;4.75;;;3.55;;
19049;SDS011;9657;45.940;12.840;2023-07-29T12:39:17;3.50;;;3.20;;
19049;SDS011;9657;45.940;12.840;2023-07-29T12:41:46;3.08;;;2.78;;
19049;SDS011;9657;45.940;12.840;2023-07-29T12:44:14;3.40;;;3.08;;
19049;SDS011;9657;45.940;12.840;2023-07-29T12:46:41;3.95;;;2.97;;
19049;SDS011;9657;45.940;12.840;2023-07-29T12:49:08;5.80;;;3.28;;
19049;SDS011;9657;45.940;12.840;2023-07-29T12:51:36;3.42;;;3.13;;
19049;SDS011;9657;45.940;12.840;2023-07-29T12:54:03;3.38;;;3.08;;
19049;SDS011;9657;45.940;12.840;2023-07-29T12:56:30;3.83;;;3.50;;
19049;SDS011;9657;45.940;12.840;2023-07-29T12:58:59;4.45;;;3.35;;
19049;SDS011;9657;45.940;12.840;2023-07-29T13:01:28;4.18;;;3.38;;
19049;SDS011;9657;45.940;12.840;2023-07-29T13:03:55;3.90;;;3.30;;
19049;SDS011;9657;45.940;12.840;2023-07-29T13:06:22;4.70;;;3.22;;
19049;SDS011;9657;45.940;12.840;2023-07-29T13:08:49;5.60;;;4.07;;
19049;SDS011;9657;45.940;12.840;2023-07-29T13:11:17;4.30;;;3.65;;
19049;SDS011;9657;45.940;12.840;2023-07-29T13:13:44;5.10;;;3.92;;
19049;SDS011;9657;45.940;12.840;2023-07-29T13:16:13;3.75;;;3.33;;
19049;SDS011;9657;45.940;12.840;2023-07-29T13:18:40;4.53;;;3.78;;
19049;SDS011;9657;45.940;12.840;2023-07-29T13:21:07;4.78;;;3.97;;
19049;SDS011;9657;45.940;12.840;2023-07-29T13:23:34;4.70;;;4.05;;
19049;SDS011;9657;45.940;12.840;2023-07-29T13:26:01;4.90;;;3.65;;
19049;SDS011;9657;45.940;12.840;2023-07-29T13:28:28;3.97;;;3.63;;
19049;SDS011;9657;45.940;12.840;2023-07-29T13:30:55;4.70;;;3.65;;
19049;SDS011;9657;45.940;12.840;2023-07-29T13:33:23;4.10;;;3.60;;
19049;SDS011;9657;45.940;12.840;2023-07-29T13:35:50;5.28;;;3.70;;
19049;SDS011;9657;45.940;12.840;2023-07-29T13:38:17;3.97;;;3.67;;
19049;SDS011;9657;45.940;12.840;2023-07-29T13:40:45;5.63;;;3.60;;
19049;SDS011;9657;45.940;12.840;2023-07-29T13:43:13;4.47;;;3.80;;
19049;SDS011;9657;45.940;12.840;2023-07-29T13:45:40;3.92;;;3.22;;
19049;SDS011;9657;45.940;12.840;2023-07-29T13:48:07;5.97;;;3.90;;
19049;SDS011;9657;45.940;12.840;2023-07-29T13:50:36;4.03;;;3.40;;
19049;SDS011;9657;45.940;12.840;2023-07-29T13:53:03;5.93;;;3.70;;
19049;SDS011;9657;45.940;12.840;2023-07-29T13:55:30;5.55;;;4.20;;
19049;SDS011;9657;45.940;12.840;2023-07-29T13:57:57;5.72;;;3.95;;
19049;SDS011;9657;45.940;12.840;2023-07-29T14:00:24;3.97;;;3.58;;
19049;SDS011;9657;45.940;12.840;2023-07-29T14:02:51;3.47;;;3.17;;
19049;SDS011;9657;45.940;12.840;2023-07-29T14:05:18;4.18;;;3.40;;
19049;SDS011;9657;45.940;12.840;2023-07-29T14:07:47;4.88;;;3.40;;
19049;SDS011;9657;45.940;12.840;2023-07-29T14:10:14;3.40;;;3.10;;
19049;SDS011;9657;45.940;12.840;2023-07-29T14:12:41;5.03;;;3.20;;
19049;SDS011;9657;45.940;12.840;2023-07-29T14:15:08;3.83;;;3.20;;
19049;SDS011;9657;45.940;12.840;2023-07-29T14:17:35;5.32;;;3.50;;
19049;SDS011;9657;45.940;12.840;2023-07-29T14:20:03;4.28;;;3.35;;
19049;SDS011;9657;45.940;12.840;2023-07-29T14:22:31;3.47;;;3.15;;
19049;SDS011;9657;45.940;12.840;2023-07-29T14:24:59;4.10;;;3.35;;
19049;SDS011;9657;45.940;12.840;2023-07-29T14:27:26;5.32;;;3.40;;
19049;SDS011;9657;45.940;12.840;2023-07-29T14:29:53;3.45;;;3.05;;
19049;SDS011;9657;45.940;12.840;2023-07-29T14:32:20;3.08;;;2.88;;
19049;SDS011;9657;45.940;12.840;2023-07-29T14:34:47;4.10;;;2.95;;
19049;SDS011;9657;45.940;12.840;2023-07-29T14:37:15;3.42;;;3.10;;
19049;SDS011;9657;45.940;12.840;2023-07-29T14:39:42;4.05;;;3.10;;
19049;SDS011;9657;45.940;12.840;2023-07-29T14:42:10;4.40;;;3.47;;
19049;SDS011;9657;45.940;12.840;2023-07-29T14:44:39;4.10;;;3.38;;
19049;SDS011;9657;45.940;12.840;2023-07-29T14:47:07;3.20;;;2.90;;
19049;SDS011;9657;45.940;12.840;2023-07-29T14:49:34;3.63;;;3.17;;